sensor_id;sensor_type;location;lat;lon;timestamp;temperature;humidity
47162;DHT22;32921;53.256;8.198;2023-03-01T00:01:59;-3.60;99.90
47162;DHT22;32921;53.256;8.198;2023-03-01T00:04:25;-3.80;99.90
47162;DHT22;32921;53.256;8.198;2023-03-01T00:06:51;-3.90;99.90
47162;DHT22;32921;53.256;8.198;2023-03-01T00:09:17;-3.90;99.90
47162;DHT22;32921;53.256;8.198;2023-03-01T00:11:42;-4.00;99.90
47162;DHT22;32921;53.256;8.198;2023-03-01T00:14:08;-4.00;99.90
47162;DHT22;32921;53.256;8.198;2023-03-01T00:16:37;-3.90;99.90
47162;DHT22;32921;53.256;8.198;2023-03-01T00:19:05;-4.00;99.90
47162;DHT22;32921;53.256;8.198;2023-03-01T00:21:31;-3.70;99.90
47162;DHT22;32921;53.256;8.198;2023-03-01T00:23:56;-3.70;99.90
47162;DHT22;32921;53.256;8.198;2023-03-01T00:26:24;-3.80;99.90
47162;DHT22;32921;53.256;8.198;2023-03-01T00:28:50;-3.80;99.90
47162;DHT22;32921;53.256;8.198;2023-03-01T00:31:23;-3.90;99.90
47162;DHT22;32921;53.256;8.198;2023-03-01T00:33:52;-3.90;99.90
47162;DHT22;32921;53.256;8.198;2023-03-01T00:36:22;-4.10;99.90
47162;DHT22;32921;53.256;8.198;2023-03-01T00:38:48;-4.10;99.90
47162;DHT22;32921;53.256;8.198;2023-03-01T00:41:15;-4.20;99.90
47162;DHT22;32921;53.256;8.198;2023-03-01T00:43:42;-4.40;99.90
47162;DHT22;32921;53.256;8.198;2023-03-01T00:46:13;-4.40;99.90
47162;DHT22;32921;53.256;8.198;2023-03-01T00:48:40;-4.00;99.90
47162;DHT22;32921;53.256;8.198;2023-03-01T00:51:06;-3.90;99.90
47162;DHT22;32921;53.256;8.198;2023-03-01T00:53:32;-4.10;99.90
47162;DHT22;32921;53.256;8.198;2023-03-01T00:55:58;-4.20;99.90
47162;DHT22;32921;53.256;8.198;2023-03-01T00:58:24;-4.30;99.90
47162;DHT22;32921;53.256;8.198;2023-03-01T01:00:49;-4.40;99.90
47162;DHT22;32921;53.256;8.198;2023-03-01T01:03:15;-4.40;99.90
47162;DHT22;32921;53.256;8.198;2023-03-01T01:05:41;-4.30;99.90
47162;DHT22;32921;53.256;8.198;2023-03-01T01:08:06;-4.40;99.90
47162;DHT22;32921;53.256;8.198;2023-03-01T01:10:34;-4.40;99.90
47162;DHT22;32921;53.256;8.198;2023-03-01T01:12:59;-4.20;99.90
47162;DHT22;32921;53.256;8.198;2023-03-01T01:15:25;-4.40;99.90
47162;DHT22;32921;53.256;8.198;2023-03-01T01:17:51;-4.40;99.90
47162;DHT22;32921;53.256;8.198;2023-03-01T01:20:17;-4.30;99.90
47162;DHT22;32921;53.256;8.198;2023-03-01T01:22:42;-4.30;99.90
47162;DHT22;32921;53.256;8.198;2023-03-01T01:25:08;-4.50;99.90
47162;DHT22;32921;53.256;8.198;2023-03-01T01:27:34;-4.60;99.90
47162;DHT22;32921;53.256;8.198;2023-03-01T01:29:59;-4.70;99.90
47162;DHT22;32921;53.256;8.198;2023-03-01T01:32:25;-4.80;99.90
47162;DHT22;32921;53.256;8.198;2023-03-01T01:34:51;-4.90;99.90
47162;DHT22;32921;53.256;8.198;2023-03-01T01:37:16;-4.90;99.90
47162;DHT22;32921;53.256;8.198;2023-03-01T01:39:42;-4.90;99.90
47162;DHT22;32921;53.256;8.198;2023-03-01T01:42:15;-5.00;99.90
47162;DHT22;32921;53.256;8.198;2023-03-01T01:44:45;-5.00;99.90
47162;DHT22;32921;53.256;8.198;2023-03-01T01:47:16;-5.00;99.90
47162;DHT22;32921;53.256;8.198;2023-03-01T01:49:56;-5.00;99.90
47162;DHT22;32921;53.256;8.198;2023-03-01T01:54:53;-5.00;99.90
47162;DHT22;32921;53.256;8.198;2023-03-01T01:57:27;-5.00;99.90
47162;DHT22;32921;53.256;8.198;2023-03-01T01:59:58;-4.90;99.90
47162;DHT22;32921;53.256;8.198;2023-03-01T02:02:25;-4.70;99.90
47162;DHT22;32921;53.256;8.198;2023-03-01T02:05:11;-4.70;99.90
47162;DHT22;32921;53.256;8.198;2023-03-01T02:07:39;-4.80;99.90
47162;DHT22;32921;53.256;8.198;2023-03-01T02:10:06;-4.90;99.90
47162;DHT22;32921;53.256;8.198;2023-03-01T02:12:32;-5.00;99.90
47162;DHT22;32921;53.256;8.198;2023-03-01T02:14:59;-5.00;99.90
47162;DHT22;32921;53.256;8.198;2023-03-01T02:17:24;-5.00;99.90
47162;DHT22;32921;53.256;8.198;2023-03-01T02:20:19;-5.00;99.90
47162;DHT22;32921;53.256;8.198;2023-03-01T02:22:48;-5.00;99.90
47162;DHT22;32921;53.256;8.198;2023-03-01T02:30:36;-5.00;99.90
47162;DHT22;32921;53.256;8.198;2023-03-01T02:33:03;-5.10;99.90
47162;DHT22;32921;53.256;8.198;2023-03-01T02:35:31;-5.20;99.90
47162;DHT22;32921;53.256;8.198;2023-03-01T02:37:58;-4.90;99.90
47162;DHT22;32921;53.256;8.198;2023-03-01T02:40:28;-5.00;99.90
47162;DHT22;32921;53.256;8.198;2023-03-01T02:42:58;-5.10;99.90
47162;DHT22;32921;53.256;8.198;2023-03-01T02:45:25;-5.10;99.90
47162;DHT22;32921;53.256;8.198;2023-03-01T02:47:54;-5.10;99.90
47162;DHT22;32921;53.256;8.198;2023-03-01T02:55:59;-5.30;99.90
47162;DHT22;32921;53.256;8.198;2023-03-01T02:58:24;-5.30;99.90
47162;DHT22;32921;53.256;8.198;2023-03-01T03:00:50;-5.30;99.90
47162;DHT22;32921;53.256;8.198;2023-03-01T03:03:21;-5.20;99.90
47162;DHT22;32921;53.256;8.198;2023-03-01T03:05:47;-5.30;99.90
47162;DHT22;32921;53.256;8.198;2023-03-01T03:08:14;-5.40;99.90
47162;DHT22;32921;53.256;8.198;2023-03-01T03:10:42;-5.30;99.90
47162;DHT22;32921;53.256;8.198;2023-03-01T03:13:12;-5.20;99.90
47162;DHT22;32921;53.256;8.198;2023-03-01T03:15:39;-5.20;99.90
47162;DHT22;32921;53.256;8.198;2023-03-01T03:18:09;-5.10;99.90
47162;DHT22;32921;53.256;8.198;2023-03-01T03:20:36;-5.10;99.90
47162;DHT22;32921;53.256;8.198;2023-03-01T03:23:03;-5.10;99.90
47162;DHT22;32921;53.256;8.198;2023-03-01T03:25:29;-5.00;99.90
47162;DHT22;32921;53.256;8.198;2023-03-01T03:27:55;-5.00;99.90
47162;DHT22;32921;53.256;8.198;2023-03-01T03:30:29;-5.10;99.90
47162;DHT22;32921;53.256;8.198;2023-03-01T03:32:56;-5.30;99.90
47162;DHT22;32921;53.256;8.198;2023-03-01T03:35:25;-5.10;99.90
47162;DHT22;32921;53.256;8.198;2023-03-01T03:37:51;-5.10;99.90
47162;DHT22;32921;53.256;8.198;2023-03-01T03:40:35;-5.10;99.90
47162;DHT22;32921;53.256;8.198;2023-03-01T03:43:02;-5.10;99.90
47162;DHT22;32921;53.256;8.198;2023-03-01T03:45:28;-5.10;99.90
47162;DHT22;32921;53.256;8.198;2023-03-01T03:47:53;-5.20;99.90
47162;DHT22;32921;53.256;8.198;2023-03-01T03:50:19;-5.20;99.90
47162;DHT22;32921;53.256;8.198;2023-03-01T03:52:45;-5.20;99.90
47162;DHT22;32921;53.256;8.198;2023-03-01T03:55:12;-5.10;99.90
47162;DHT22;32921;53.256;8.198;2023-03-01T03:57:38;-5.20;99.90
47162;DHT22;32921;53.256;8.198;2023-03-01T04:00:05;-5.10;99.90
47162;DHT22;32921;53.256;8.198;2023-03-01T04:02:38;-5.20;99.90
47162;DHT22;32921;53.256;8.198;2023-03-01T04:05:04;-5.30;99.90
47162;DHT22;32921;53.256;8.198;2023-03-01T04:07:30;-5.50;99.90
47162;DHT22;32921;53.256;8.198;2023-03-01T04:09:55;-5.50;99.90
47162;DHT22;32921;53.256;8.198;2023-03-01T04:12:21;-5.50;99.90
47162;DHT22;32921;53.256;8.198;2023-03-01T04:14:48;-5.60;99.90
47162;DHT22;32921;53.256;8.198;2023-03-01T04:17:14;-5.60;99.90
47162;DHT22;32921;53.256;8.198;2023-03-01T04:19:39;-5.60;99.90
47162;DHT22;32921;53.256;8.198;2023-03-01T04:22:05;-5.50;99.90
47162;DHT22;32921;53.256;8.198;2023-03-01T04:24:35;-5.60;99.90
47162;DHT22;32921;53.256;8.198;2023-03-01T04:27:01;-5.60;99.90
47162;DHT22;32921;53.256;8.198;2023-03-01T04:29:26;-5.40;99.90
47162;DHT22;32921;53.256;8.198;2023-03-01T04:31:52;-5.30;99.90
47162;DHT22;32921;53.256;8.198;2023-03-01T04:34:18;-5.30;99.90
47162;DHT22;32921;53.256;8.198;2023-03-01T04:36:43;-5.40;99.90
47162;DHT22;32921;53.256;8.198;2023-03-01T04:39:09;-5.60;99.90
47162;DHT22;32921;53.256;8.198;2023-03-01T04:41:37;-5.70;99.90
47162;DHT22;32921;53.256;8.198;2023-03-01T04:44:04;-5.50;99.90
47162;DHT22;32921;53.256;8.198;2023-03-01T04:46:30;-5.40;99.90
47162;DHT22;32921;53.256;8.198;2023-03-01T04:48:56;-5.50;99.90
47162;DHT22;32921;53.256;8.198;2023-03-01T04:51:21;-5.60;99.90
47162;DHT22;32921;53.256;8.198;2023-03-01T04:53:47;-5.80;99.90
47162;DHT22;32921;53.256;8.198;2023-03-01T04:56:13;-5.80;99.90
47162;DHT22;32921;53.256;8.198;2023-03-01T04:58:39;-5.90;99.90
47162;DHT22;32921;53.256;8.198;2023-03-01T05:01:13;-5.60;99.90
47162;DHT22;32921;53.256;8.198;2023-03-01T05:03:47;-5.70;99.90
47162;DHT22;32921;53.256;8.198;2023-03-01T05:06:13;-5.80;99.90
47162;DHT22;32921;53.256;8.198;2023-03-01T05:08:40;-5.80;99.90
47162;DHT22;32921;53.256;8.198;2023-03-01T05:11:06;-5.90;99.90
47162;DHT22;32921;53.256;8.198;2023-03-01T05:13:35;-5.80;99.90
47162;DHT22;32921;53.256;8.198;2023-03-01T05:16:01;-5.80;99.90
47162;DHT22;32921;53.256;8.198;2023-03-01T05:18:31;-5.80;99.90
47162;DHT22;32921;53.256;8.198;2023-03-01T05:21:06;-5.80;99.90
47162;DHT22;32921;53.256;8.198;2023-03-01T05:23:32;-5.70;99.90
47162;DHT22;32921;53.256;8.198;2023-03-01T05:25:59;-5.80;99.90
47162;DHT22;32921;53.256;8.198;2023-03-01T05:28:26;-5.80;99.90
47162;DHT22;32921;53.256;8.198;2023-03-01T05:30:52;-5.90;99.90
47162;DHT22;32921;53.256;8.198;2023-03-01T05:33:17;-6.00;99.90
47162;DHT22;32921;53.256;8.198;2023-03-01T05:35:45;-5.90;99.90
47162;DHT22;32921;53.256;8.198;2023-03-01T05:38:11;-6.00;99.90
47162;DHT22;32921;53.256;8.198;2023-03-01T05:40:39;-5.80;99.90
47162;DHT22;32921;53.256;8.198;2023-03-01T05:43:05;-5.90;99.90
47162;DHT22;32921;53.256;8.198;2023-03-01T05:45:31;-6.00;99.90
47162;DHT22;32921;53.256;8.198;2023-03-01T05:48:00;-6.10;99.90
47162;DHT22;32921;53.256;8.198;2023-03-01T05:50:28;-6.10;99.90
47162;DHT22;32921;53.256;8.198;2023-03-01T05:52:58;-6.00;99.90
47162;DHT22;32921;53.256;8.198;2023-03-01T05:55:24;-6.00;99.90
47162;DHT22;32921;53.256;8.198;2023-03-01T05:57:50;-6.00;99.90
47162;DHT22;32921;53.256;8.198;2023-03-01T06:00:18;-5.90;99.90
47162;DHT22;32921;53.256;8.198;2023-03-01T06:02:44;-5.80;99.90
47162;DHT22;32921;53.256;8.198;2023-03-01T06:05:11;-5.80;99.90
47162;DHT22;32921;53.256;8.198;2023-03-01T06:07:37;-5.80;99.90
47162;DHT22;32921;53.256;8.198;2023-03-01T06:10:04;-5.90;99.90
47162;DHT22;32921;53.256;8.198;2023-03-01T06:12:35;-6.00;99.90
47162;DHT22;32921;53.256;8.198;2023-03-01T06:15:01;-6.10;99.90
47162;DHT22;32921;53.256;8.198;2023-03-01T06:17:29;-6.00;99.90
47162;DHT22;32921;53.256;8.198;2023-03-01T06:19:55;-6.00;99.90
47162;DHT22;32921;53.256;8.198;2023-03-01T06:22:20;-5.80;99.90
47162;DHT22;32921;53.256;8.198;2023-03-01T06:24:46;-5.50;99.90
47162;DHT22;32921;53.256;8.198;2023-03-01T06:27:11;-5.60;99.90
47162;DHT22;32921;53.256;8.198;2023-03-01T06:29:37;-5.70;99.90
47162;DHT22;32921;53.256;8.198;2023-03-01T06:32:03;-5.40;99.90
47162;DHT22;32921;53.256;8.198;2023-03-01T06:34:29;-4.90;99.90
47162;DHT22;32921;53.256;8.198;2023-03-01T06:36:54;-4.60;99.90
47162;DHT22;32921;53.256;8.198;2023-03-01T06:39:20;-4.30;99.90
47162;DHT22;32921;53.256;8.198;2023-03-01T06:41:45;-4.10;99.90
47162;DHT22;32921;53.256;8.198;2023-03-01T06:44:11;-4.10;99.90
47162;DHT22;32921;53.256;8.198;2023-03-01T06:46:36;-4.10;99.90
47162;DHT22;32921;53.256;8.198;2023-03-01T06:49:02;-4.00;99.90
47162;DHT22;32921;53.256;8.198;2023-03-01T06:51:32;-3.90;99.90
47162;DHT22;32921;53.256;8.198;2023-03-01T06:53:58;-4.20;99.90
47162;DHT22;32921;53.256;8.198;2023-03-01T06:56:24;-4.30;99.90
47162;DHT22;32921;53.256;8.198;2023-03-01T06:58:49;-4.00;99.90
47162;DHT22;32921;53.256;8.198;2023-03-01T07:01:15;-3.90;99.90
47162;DHT22;32921;53.256;8.198;2023-03-01T07:03:40;-4.00;99.90
47162;DHT22;32921;53.256;8.198;2023-03-01T07:06:06;-4.10;99.90
47162;DHT22;32921;53.256;8.198;2023-03-01T07:08:32;-4.30;99.90
47162;DHT22;32921;53.256;8.198;2023-03-01T07:10:58;-4.40;99.90
47162;DHT22;32921;53.256;8.198;2023-03-01T07:13:24;-4.30;99.90
47162;DHT22;32921;53.256;8.198;2023-03-01T07:15:49;-4.30;99.90
47162;DHT22;32921;53.256;8.198;2023-03-01T07:18:15;-4.20;99.90
47162;DHT22;32921;53.256;8.198;2023-03-01T07:20:40;-4.00;99.90
47162;DHT22;32921;53.256;8.198;2023-03-01T07:23:06;-4.00;99.90
47162;DHT22;32921;53.256;8.198;2023-03-01T07:25:32;-4.00;99.90
47162;DHT22;32921;53.256;8.198;2023-03-01T07:27:58;-4.10;99.90
47162;DHT22;32921;53.256;8.198;2023-03-01T07:30:24;-3.90;99.90
47162;DHT22;32921;53.256;8.198;2023-03-01T07:32:52;-3.90;99.90
47162;DHT22;32921;53.256;8.198;2023-03-01T07:35:18;-3.90;99.90
47162;DHT22;32921;53.256;8.198;2023-03-01T07:37:44;-3.90;99.90
47162;DHT22;32921;53.256;8.198;2023-03-01T07:40:10;-3.70;99.90
47162;DHT22;32921;53.256;8.198;2023-03-01T07:42:36;-3.50;99.90
47162;DHT22;32921;53.256;8.198;2023-03-01T07:45:02;-3.10;99.90
47162;DHT22;32921;53.256;8.198;2023-03-01T07:47:27;-2.60;99.90
47162;DHT22;32921;53.256;8.198;2023-03-01T07:49:53;-1.90;99.90
47162;DHT22;32921;53.256;8.198;2023-03-01T07:52:18;-1.90;99.90
47162;DHT22;32921;53.256;8.198;2023-03-01T07:54:44;-1.70;99.90
47162;DHT22;32921;53.256;8.198;2023-03-01T07:57:10;-1.50;99.90
47162;DHT22;32921;53.256;8.198;2023-03-01T07:59:36;-1.20;99.90
47162;DHT22;32921;53.256;8.198;2023-03-01T08:02:02;-0.60;99.90
47162;DHT22;32921;53.256;8.198;2023-03-01T08:04:27;0.00;99.90
47162;DHT22;32921;53.256;8.198;2023-03-01T08:06:54;0.10;99.90
47162;DHT22;32921;53.256;8.198;2023-03-01T08:09:20;0.00;99.90
47162;DHT22;32921;53.256;8.198;2023-03-01T08:11:46;-0.20;99.90
47162;DHT22;32921;53.256;8.198;2023-03-01T08:14:11;-0.30;99.90
47162;DHT22;32921;53.256;8.198;2023-03-01T08:16:37;-0.30;99.90
47162;DHT22;32921;53.256;8.198;2023-03-01T08:19:07;-0.30;99.90
47162;DHT22;32921;53.256;8.198;2023-03-01T08:21:34;-0.20;99.90
47162;DHT22;32921;53.256;8.198;2023-03-01T08:24:03;0.20;99.90
47162;DHT22;32921;53.256;8.198;2023-03-01T08:26:29;0.40;99.90
47162;DHT22;32921;53.256;8.198;2023-03-01T08:28:55;0.60;99.90
47162;DHT22;32921;53.256;8.198;2023-03-01T08:33:51;1.30;99.90
47162;DHT22;32921;53.256;8.198;2023-03-01T08:36:24;1.50;99.90
47162;DHT22;32921;53.256;8.198;2023-03-01T08:38:50;1.40;99.90
47162;DHT22;32921;53.256;8.198;2023-03-01T08:41:16;1.50;99.90
47162;DHT22;32921;53.256;8.198;2023-03-01T08:43:42;1.70;99.90
47162;DHT22;32921;53.256;8.198;2023-03-01T08:46:07;1.60;99.90
47162;DHT22;32921;53.256;8.198;2023-03-01T08:48:33;1.40;99.90
47162;DHT22;32921;53.256;8.198;2023-03-01T08:51:10;1.40;99.90
47162;DHT22;32921;53.256;8.198;2023-03-01T08:53:36;1.30;99.90
47162;DHT22;32921;53.256;8.198;2023-03-01T08:56:02;1.10;99.90
47162;DHT22;32921;53.256;8.198;2023-03-01T08:58:28;1.10;99.90
47162;DHT22;32921;53.256;8.198;2023-03-01T09:00:54;1.10;99.90
47162;DHT22;32921;53.256;8.198;2023-03-01T09:03:22;1.00;99.90
47162;DHT22;32921;53.256;8.198;2023-03-01T09:05:47;1.10;99.90
47162;DHT22;32921;53.256;8.198;2023-03-01T09:08:16;1.00;99.90
47162;DHT22;32921;53.256;8.198;2023-03-01T09:10:41;1.00;99.90
47162;DHT22;32921;53.256;8.198;2023-03-01T09:13:07;0.90;99.90
47162;DHT22;32921;53.256;8.198;2023-03-01T09:15:33;1.00;99.90
47162;DHT22;32921;53.256;8.198;2023-03-01T09:17:59;1.20;99.90
47162;DHT22;32921;53.256;8.198;2023-03-01T09:20:25;1.10;99.90
47162;DHT22;32921;53.256;8.198;2023-03-01T09:22:50;1.10;99.90
47162;DHT22;32921;53.256;8.198;2023-03-01T09:25:16;1.10;99.90
47162;DHT22;32921;53.256;8.198;2023-03-01T09:27:41;1.40;99.90
47162;DHT22;32921;53.256;8.198;2023-03-01T09:30:08;1.70;99.90
47162;DHT22;32921;53.256;8.198;2023-03-01T09:32:33;1.80;99.90
47162;DHT22;32921;53.256;8.198;2023-03-01T09:34:59;1.90;99.90
47162;DHT22;32921;53.256;8.198;2023-03-01T09:37:31;2.00;99.90
47162;DHT22;32921;53.256;8.198;2023-03-01T09:39:57;1.90;99.90
47162;DHT22;32921;53.256;8.198;2023-03-01T09:42:23;1.90;99.90
47162;DHT22;32921;53.256;8.198;2023-03-01T09:44:59;2.00;99.90
47162;DHT22;32921;53.256;8.198;2023-03-01T09:47:31;2.20;99.90
47162;DHT22;32921;53.256;8.198;2023-03-01T09:50:13;2.20;99.90
47162;DHT22;32921;53.256;8.198;2023-03-01T09:52:47;2.20;99.90
47162;DHT22;32921;53.256;8.198;2023-03-01T09:55:28;2.20;99.90
47162;DHT22;32921;53.256;8.198;2023-03-01T10:00:46;2.40;99.90
47162;DHT22;32921;53.256;8.198;2023-03-01T10:03:24;2.60;99.90
47162;DHT22;32921;53.256;8.198;2023-03-01T10:06:15;2.60;99.90
47162;DHT22;32921;53.256;8.198;2023-03-01T10:08:54;2.70;99.90
47162;DHT22;32921;53.256;8.198;2023-03-01T10:16:48;2.90;99.90
47162;DHT22;32921;53.256;8.198;2023-03-01T10:19:46;3.20;99.90
47162;DHT22;32921;53.256;8.198;2023-03-01T10:22:24;3.50;99.90
47162;DHT22;32921;53.256;8.198;2023-03-01T10:24:54;3.60;99.90
47162;DHT22;32921;53.256;8.198;2023-03-01T10:27:25;3.60;99.90
47162;DHT22;32921;53.256;8.198;2023-03-01T10:30:18;3.70;99.90
47162;DHT22;32921;53.256;8.198;2023-03-01T10:32:45;3.80;99.90
47162;DHT22;32921;53.256;8.198;2023-03-01T10:35:18;4.00;99.90
47162;DHT22;32921;53.256;8.198;2023-03-01T10:38:05;4.10;99.90
47162;DHT22;32921;53.256;8.198;2023-03-01T10:40:32;4.20;99.90
47162;DHT22;32921;53.256;8.198;2023-03-01T10:43:03;4.40;99.90
47162;DHT22;32921;53.256;8.198;2023-03-01T10:45:40;4.40;99.90
47162;DHT22;32921;53.256;8.198;2023-03-01T10:48:13;4.50;99.90
47162;DHT22;32921;53.256;8.198;2023-03-01T10:50:47;4.60;99.90
47162;DHT22;32921;53.256;8.198;2023-03-01T10:56:10;4.70;99.90
47162;DHT22;32921;53.256;8.198;2023-03-01T10:58:40;4.90;99.90
47162;DHT22;32921;53.256;8.198;2023-03-01T11:01:33;5.20;99.90
47162;DHT22;32921;53.256;8.198;2023-03-01T11:04:18;5.20;99.00
47162;DHT22;32921;53.256;8.198;2023-03-01T11:06:43;5.50;99.90
47162;DHT22;32921;53.256;8.198;2023-03-01T11:09:24;6.00;97.10
47162;DHT22;32921;53.256;8.198;2023-03-01T11:11:57;6.00;95.30
47162;DHT22;32921;53.256;8.198;2023-03-01T11:14:25;6.50;94.60
47162;DHT22;32921;53.256;8.198;2023-03-01T11:17:11;6.90;93.60
47162;DHT22;32921;53.256;8.198;2023-03-01T11:19:38;7.10;91.20
47162;DHT22;32921;53.256;8.198;2023-03-01T11:24:46;7.70;91.20
47162;DHT22;32921;53.256;8.198;2023-03-01T11:27:25;8.40;89.20
47162;DHT22;32921;53.256;8.198;2023-03-01T11:30:03;8.70;86.70
47162;DHT22;32921;53.256;8.198;2023-03-01T11:32:45;9.20;83.20
47162;DHT22;32921;53.256;8.198;2023-03-01T11:35:20;8.50;80.80
47162;DHT22;32921;53.256;8.198;2023-03-01T11:40:35;9.90;78.70
47162;DHT22;32921;53.256;8.198;2023-03-01T11:43:33;10.10;70.90
47162;DHT22;32921;53.256;8.198;2023-03-01T11:49:12;10.40;70.50
47162;DHT22;32921;53.256;8.198;2023-03-01T11:52:02;10.40;68.60
47162;DHT22;32921;53.256;8.198;2023-03-01T11:55:26;10.10;69.90
47162;DHT22;32921;53.256;8.198;2023-03-01T11:57:57;10.90;67.80
47162;DHT22;32921;53.256;8.198;2023-03-01T12:00:45;11.30;65.80
47162;DHT22;32921;53.256;8.198;2023-03-01T12:06:52;9.90;66.90
47162;DHT22;32921;53.256;8.198;2023-03-01T12:12:18;10.90;65.50
47162;DHT22;32921;53.256;8.198;2023-03-01T12:14:55;11.00;65.00
47162;DHT22;32921;53.256;8.198;2023-03-01T12:20:21;11.30;62.50
47162;DHT22;32921;53.256;8.198;2023-03-01T12:28:03;10.50;65.90
47162;DHT22;32921;53.256;8.198;2023-03-01T12:38:48;10.20;68.80
47162;DHT22;32921;53.256;8.198;2023-03-01T12:41:26;9.60;70.70
47162;DHT22;32921;53.256;8.198;2023-03-01T12:46:21;8.40;75.20
47162;DHT22;32921;53.256;8.198;2023-03-01T12:49:14;8.00;76.90
47162;DHT22;32921;53.256;8.198;2023-03-01T12:51:46;7.50;78.70
47162;DHT22;32921;53.256;8.198;2023-03-01T12:54:24;7.40;80.80
47162;DHT22;32921;53.256;8.198;2023-03-01T12:56:51;7.40;80.30
47162;DHT22;32921;53.256;8.198;2023-03-01T12:59:46;7.60;80.20
47162;DHT22;32921;53.256;8.198;2023-03-01T13:05:24;7.80;80.70
47162;DHT22;32921;53.256;8.198;2023-03-01T13:10:59;8.00;80.90
47162;DHT22;32921;53.256;8.198;2023-03-01T13:13:27;8.00;80.70
47162;DHT22;32921;53.256;8.198;2023-03-01T13:15:54;7.80;81.30
47162;DHT22;32921;53.256;8.198;2023-03-01T13:20:52;8.20;80.20
47162;DHT22;32921;53.256;8.198;2023-03-01T13:26:06;7.60;81.10
47162;DHT22;32921;53.256;8.198;2023-03-01T13:31:03;7.80;83.00
47162;DHT22;32921;53.256;8.198;2023-03-01T13:35:59;7.70;83.20
47162;DHT22;32921;53.256;8.198;2023-03-01T13:38:46;7.70;84.00
47162;DHT22;32921;53.256;8.198;2023-03-01T13:46:51;7.90;83.90
47162;DHT22;32921;53.256;8.198;2023-03-01T13:49:25;7.70;84.20
47162;DHT22;32921;53.256;8.198;2023-03-01T13:51:51;7.80;84.70
47162;DHT22;32921;53.256;8.198;2023-03-01T13:54:29;7.70;85.50
47162;DHT22;32921;53.256;8.198;2023-03-01T13:56:55;7.60;85.80
47162;DHT22;32921;53.256;8.198;2023-03-01T13:59:22;7.50;86.40
47162;DHT22;32921;53.256;8.198;2023-03-01T14:01:59;7.60;85.60
47162;DHT22;32921;53.256;8.198;2023-03-01T14:04:30;7.60;85.60
47162;DHT22;32921;53.256;8.198;2023-03-01T14:07:16;7.50;86.50
47162;DHT22;32921;53.256;8.198;2023-03-01T14:09:45;7.50;87.00
47162;DHT22;32921;53.256;8.198;2023-03-01T14:15:29;7.30;87.60
47162;DHT22;32921;53.256;8.198;2023-03-01T14:18:19;7.40;87.10
47162;DHT22;32921;53.256;8.198;2023-03-01T14:20:47;7.40;87.10
47162;DHT22;32921;53.256;8.198;2023-03-01T14:23:19;7.70;87.30
47162;DHT22;32921;53.256;8.198;2023-03-01T14:28:30;7.50;86.80
47162;DHT22;32921;53.256;8.198;2023-03-01T14:30:58;7.30;87.60
47162;DHT22;32921;53.256;8.198;2023-03-01T14:36:01;7.30;88.50
47162;DHT22;32921;53.256;8.198;2023-03-01T14:38:44;7.30;88.00
47162;DHT22;32921;53.256;8.198;2023-03-01T14:41:19;7.40;88.60
47162;DHT22;32921;53.256;8.198;2023-03-01T14:44:06;7.60;88.80
47162;DHT22;32921;53.256;8.198;2023-03-01T14:46:38;7.70;88.80
47162;DHT22;32921;53.256;8.198;2023-03-01T14:49:19;7.50;88.10
47162;DHT22;32921;53.256;8.198;2023-03-01T14:52:06;7.40;89.30
47162;DHT22;32921;53.256;8.198;2023-03-01T14:54:42;7.30;89.60
47162;DHT22;32921;53.256;8.198;2023-03-01T14:57:14;7.50;89.60
47162;DHT22;32921;53.256;8.198;2023-03-01T14:59:41;7.60;89.00
47162;DHT22;32921;53.256;8.198;2023-03-01T15:02:26;7.80;89.30
47162;DHT22;32921;53.256;8.198;2023-03-01T15:05:01;7.70;90.00
47162;DHT22;32921;53.256;8.198;2023-03-01T15:07:40;7.70;90.20
47162;DHT22;32921;53.256;8.198;2023-03-01T15:10:17;8.20;88.10
47162;DHT22;32921;53.256;8.198;2023-03-01T15:12:45;8.60;85.90
47162;DHT22;32921;53.256;8.198;2023-03-01T15:15:32;8.80;85.40
47162;DHT22;32921;53.256;8.198;2023-03-01T15:18:00;9.10;84.30
47162;DHT22;32921;53.256;8.198;2023-03-01T15:20:28;9.70;83.60
47162;DHT22;32921;53.256;8.198;2023-03-01T15:22:56;9.90;81.50
47162;DHT22;32921;53.256;8.198;2023-03-01T15:25:24;9.50;82.20
47162;DHT22;32921;53.256;8.198;2023-03-01T15:27:52;8.60;86.10
47162;DHT22;32921;53.256;8.198;2023-03-01T15:30:27;8.80;86.90
47162;DHT22;32921;53.256;8.198;2023-03-01T15:33:46;9.70;84.40
47162;DHT22;32921;53.256;8.198;2023-03-01T15:36:31;10.10;80.90
47162;DHT22;32921;53.256;8.198;2023-03-01T15:38:58;10.00;81.70
47162;DHT22;32921;53.256;8.198;2023-03-01T15:41:37;10.10;79.70
47162;DHT22;32921;53.256;8.198;2023-03-01T15:44:26;10.00;79.80
47162;DHT22;32921;53.256;8.198;2023-03-01T15:46:52;9.60;80.70
47162;DHT22;32921;53.256;8.198;2023-03-01T15:49:39;10.00;81.10
47162;DHT22;32921;53.256;8.198;2023-03-01T15:52:10;10.30;78.50
47162;DHT22;32921;53.256;8.198;2023-03-01T15:54:39;9.70;81.30
47162;DHT22;32921;53.256;8.198;2023-03-01T15:57:12;9.60;82.30
47162;DHT22;32921;53.256;8.198;2023-03-01T15:59:38;8.70;87.30
47162;DHT22;32921;53.256;8.198;2023-03-01T16:02:11;8.60;88.30
47162;DHT22;32921;53.256;8.198;2023-03-01T16:04:40;9.00;88.00
47162;DHT22;32921;53.256;8.198;2023-03-01T16:07:06;8.60;88.10
47162;DHT22;32921;53.256;8.198;2023-03-01T16:09:31;7.90;90.40
47162;DHT22;32921;53.256;8.198;2023-03-01T16:11:57;7.30;91.50
47162;DHT22;32921;53.256;8.198;2023-03-01T16:14:23;6.80;93.30
47162;DHT22;32921;53.256;8.198;2023-03-01T16:16:49;6.50;94.60
47162;DHT22;32921;53.256;8.198;2023-03-01T16:19:15;6.30;95.90
47162;DHT22;32921;53.256;8.198;2023-03-01T16:21:41;6.10;97.20
47162;DHT22;32921;53.256;8.198;2023-03-01T16:24:12;5.90;98.20
47162;DHT22;32921;53.256;8.198;2023-03-01T16:26:38;5.80;98.80
47162;DHT22;32921;53.256;8.198;2023-03-01T16:29:04;5.60;99.40
47162;DHT22;32921;53.256;8.198;2023-03-01T16:31:30;5.60;99.90
47162;DHT22;32921;53.256;8.198;2023-03-01T16:33:57;5.50;99.90
47162;DHT22;32921;53.256;8.198;2023-03-01T16:36:24;5.30;99.90
47162;DHT22;32921;53.256;8.198;2023-03-01T16:38:51;5.10;99.90
47162;DHT22;32921;53.256;8.198;2023-03-01T16:41:19;5.00;99.90
47162;DHT22;32921;53.256;8.198;2023-03-01T16:43:46;4.80;99.90
47162;DHT22;32921;53.256;8.198;2023-03-01T16:46:13;4.60;99.90
47162;DHT22;32921;53.256;8.198;2023-03-01T16:48:39;4.50;99.90
47162;DHT22;32921;53.256;8.198;2023-03-01T16:51:05;4.40;99.90
47162;DHT22;32921;53.256;8.198;2023-03-01T16:53:32;4.30;99.90
47162;DHT22;32921;53.256;8.198;2023-03-01T16:55:59;4.30;99.90
47162;DHT22;32921;53.256;8.198;2023-03-01T16:58:25;4.10;99.90
47162;DHT22;32921;53.256;8.198;2023-03-01T17:00:54;4.00;99.90
47162;DHT22;32921;53.256;8.198;2023-03-01T17:03:23;3.90;99.90
47162;DHT22;32921;53.256;8.198;2023-03-01T17:05:49;3.80;99.90
47162;DHT22;32921;53.256;8.198;2023-03-01T17:08:15;3.70;99.90
47162;DHT22;32921;53.256;8.198;2023-03-01T17:10:41;3.60;99.90
47162;DHT22;32921;53.256;8.198;2023-03-01T17:13:10;3.60;99.90
47162;DHT22;32921;53.256;8.198;2023-03-01T17:15:40;3.60;99.90
47162;DHT22;32921;53.256;8.198;2023-03-01T17:18:06;3.40;99.90
47162;DHT22;32921;53.256;8.198;2023-03-01T17:20:32;3.20;99.90
47162;DHT22;32921;53.256;8.198;2023-03-01T17:22:57;3.10;99.90
47162;DHT22;32921;53.256;8.198;2023-03-01T17:25:23;3.30;99.90